Check out our new PWSWeather beta!
PWSweather.com
Personal Weather Stations
Station Observations
METEOC500
Santo Antonio, FunchalPT 2020

Santo AntonioFunchalPT 2020

Lat: 32.678227, Lon: -16.945054

Elevation: 1669.94751

Station Type: WH Series

High Low Average
Temperature 68.4°F20.2°C 57.0°F13.9°C 62.9°F17.2°C
Dew Point 60.6°F15.9°C 50.9°F10.5°C 56.5°F13.6°C
Winds 10.7 mph 17.2 kmh Calm Calm 4.0 mph SW6.4 kmh SW
Wind Gusts 15.0 mph24.1 kmh 2.5 mph4.0 kmh 9.0 mph14.5 kmh
Humidity 90% 67% 80%
Pressure 30.29 in1025.7 mb 30.23 in1023.7 mb -
Precipitation 0.00 in0.0 mm - -
Hour Temp Dew Point Humidity Winds Wind Gusts Pressure Precip Precip Rate Daily Precip Total
12:11 AM 59.4°F15.2°C 53.6°F12.0°C 81% 5.6 mph NNW9.0 kmh NNW 10.1 mph16.3 kmh 30.28 in1025.4 mb 0.00 in0.0 mm 0.00 in0.0 mm 0.00 in0.0 mm
12:26 AM 59.2°F15.1°C 53.4°F11.9°C 81% 5.6 mph N9.0 kmh N 10.1 mph16.3 kmh 30.28 in1025.4 mb 0.00 in0.0 mm 0.00 in0.0 mm 0.00 in0.0 mm
12:41 AM 59.2°F15.1°C 53.4°F11.9°C 81% 7.6 mph NNW12.2 kmh NNW 10.1 mph16.3 kmh 30.28 in1025.4 mb 0.00 in0.0 mm 0.00 in0.0 mm 0.00 in0.0 mm
12:56 AM 59.2°F15.1°C 53.4°F11.9°C 81% 4.0 mph NNW6.4 kmh NNW 10.1 mph16.3 kmh 30.27 in1025.1 mb 0.00 in0.0 mm 0.00 in0.0 mm 0.00 in0.0 mm
01:11 AM 58.8°F14.9°C 53.1°F11.7°C 81% 5.4 mph N8.7 kmh N 10.1 mph16.3 kmh 30.27 in1025.1 mb 0.00 in0.0 mm 0.00 in0.0 mm 0.00 in0.0 mm
01:26 AM 58.8°F14.9°C 52.3°F11.3°C 79% 6.9 mph NW11.1 kmh NW 12.5 mph20.1 kmh 30.26 in1024.7 mb 0.00 in0.0 mm 0.00 in0.0 mm 0.00 in0.0 mm
01:41 AM 59.4°F15.2°C 52.9°F11.6°C 79% 10.7 mph NNW17.2 kmh NNW 15.0 mph24.1 kmh 30.25 in1024.4 mb 0.00 in0.0 mm 0.00 in0.0 mm 0.00 in0.0 mm
01:56 AM 59.5°F15.3°C 53.4°F11.9°C 80% 4.7 mph N7.6 kmh N 12.5 mph20.1 kmh 30.25 in1024.4 mb 0.00 in0.0 mm 0.00 in0.0 mm 0.00 in0.0 mm
02:12 AM 59.0°F15.0°C 53.2°F11.8°C 81% 7.8 mph N12.6 kmh N 10.1 mph16.3 kmh 30.25 in1024.4 mb 0.00 in0.0 mm 0.00 in0.0 mm 0.00 in0.0 mm
02:27 AM 58.6°F14.8°C 51.4°F10.8°C 77% 7.2 mph NNW11.6 kmh NNW 10.1 mph16.3 kmh 30.24 in1024.0 mb 0.00 in0.0 mm 0.00 in0.0 mm 0.00 in0.0 mm
02:42 AM 58.6°F14.8°C 51.8°F11.0°C 78% 7.2 mph NNW11.6 kmh NNW 12.5 mph20.1 kmh 30.24 in1024.0 mb 0.00 in0.0 mm 0.00 in0.0 mm 0.00 in0.0 mm
02:57 AM 58.5°F14.7°C 52.7°F11.5°C 81% 5.4 mph NNW8.7 kmh NNW 12.5 mph20.1 kmh 30.24 in1024.0 mb 0.00 in0.0 mm 0.00 in0.0 mm 0.00 in0.0 mm
03:12 AM 58.1°F14.5°C 52.0°F11.1°C 80% 7.6 mph N12.2 kmh N 10.1 mph16.3 kmh 30.24 in1024.0 mb 0.00 in0.0 mm 0.00 in0.0 mm 0.00 in0.0 mm
03:27 AM 58.1°F14.5°C 52.0°F11.1°C 80% 7.2 mph NNW11.6 kmh NNW 10.1 mph16.3 kmh 30.25 in1024.4 mb 0.00 in0.0 mm 0.00 in0.0 mm 0.00 in0.0 mm
03:42 AM 58.1°F14.5°C 50.9°F10.5°C 77% 6.9 mph NNW11.1 kmh NNW 10.1 mph16.3 kmh 30.24 in1024.0 mb 0.00 in0.0 mm 0.00 in0.0 mm 0.00 in0.0 mm
03:57 AM 58.6°F14.8°C 51.8°F11.0°C 78% 4.9 mph NNW7.9 kmh NNW 12.5 mph20.1 kmh 30.24 in1024.0 mb 0.00 in0.0 mm 0.00 in0.0 mm 0.00 in0.0 mm
04:12 AM 58.8°F14.9°C 52.0°F11.1°C 78% 6.9 mph NNW11.1 kmh NNW 10.1 mph16.3 kmh 30.24 in1024.0 mb 0.00 in0.0 mm 0.00 in0.0 mm 0.00 in0.0 mm
04:27 AM 58.1°F14.5°C 52.0°F11.1°C 80% 6.0 mph NNW9.7 kmh NNW 7.6 mph12.2 kmh 30.24 in1024.0 mb 0.00 in0.0 mm 0.00 in0.0 mm 0.00 in0.0 mm
04:42 AM 57.2°F14.0°C 52.2°F11.2°C 83% 5.4 mph N8.7 kmh N 7.6 mph12.2 kmh 30.24 in1024.0 mb 0.00 in0.0 mm 0.00 in0.0 mm 0.00 in0.0 mm
04:57 AM 57.0°F13.9°C 51.3°F10.7°C 81% 4.9 mph NNW7.9 kmh NNW 10.1 mph16.3 kmh 30.25 in1024.4 mb 0.00 in0.0 mm 0.00 in0.0 mm 0.00 in0.0 mm
05:12 AM 57.6°F14.2°C 51.8°F11.0°C 81% 4.9 mph N7.9 kmh N 10.1 mph16.3 kmh 30.25 in1024.4 mb 0.00 in0.0 mm 0.00 in0.0 mm 0.00 in0.0 mm
05:27 AM 57.9°F14.4°C 52.2°F11.2°C 81% 5.4 mph NW8.7 kmh NW 10.1 mph16.3 kmh 30.25 in1024.4 mb 0.00 in0.0 mm 0.00 in0.0 mm 0.00 in0.0 mm
05:42 AM 57.9°F14.4°C 51.1°F10.6°C 78% 4.5 mph N7.2 kmh N 10.1 mph16.3 kmh 30.25 in1024.4 mb 0.00 in0.0 mm 0.00 in0.0 mm 0.00 in0.0 mm
05:57 AM 58.1°F14.5°C 51.6°F10.9°C 79% 5.6 mph NW9.0 kmh NW 10.1 mph16.3 kmh 30.26 in1024.7 mb 0.00 in0.0 mm 0.00 in0.0 mm 0.00 in0.0 mm
06:12 AM 58.1°F14.5°C 51.3°F10.7°C 78% 4.7 mph NNW7.6 kmh NNW 10.1 mph16.3 kmh 30.26 in1024.7 mb 0.00 in0.0 mm 0.00 in0.0 mm 0.00 in0.0 mm
06:27 AM 58.1°F14.5°C 52.3°F11.3°C 81% 5.6 mph NNW9.0 kmh NNW 10.1 mph16.3 kmh 30.26 in1024.7 mb 0.00 in0.0 mm 0.00 in0.0 mm 0.00 in0.0 mm
06:42 AM 57.9°F14.4°C 51.4°F10.8°C 79% 5.6 mph N9.0 kmh N 10.1 mph16.3 kmh 30.26 in1024.7 mb 0.00 in0.0 mm 0.00 in0.0 mm 0.00 in0.0 mm
06:57 AM 58.5°F14.7°C 51.3°F10.7°C 77% 7.8 mph N12.6 kmh N 10.1 mph16.3 kmh 30.26 in1024.7 mb 0.00 in0.0 mm 0.00 in0.0 mm 0.00 in0.0 mm
07:12 AM 58.8°F14.9°C 52.0°F11.1°C 78% 4.5 mph N7.2 kmh N 10.1 mph16.3 kmh 30.26 in1024.7 mb 0.00 in0.0 mm 0.00 in0.0 mm 0.00 in0.0 mm
07:27 AM 58.5°F14.7°C 52.3°F11.3°C 80% 5.4 mph N8.7 kmh N 7.6 mph12.2 kmh 30.27 in1025.1 mb 0.00 in0.0 mm 0.00 in0.0 mm 0.00 in0.0 mm
07:42 AM 58.5°F14.7°C 52.0°F11.1°C 79% 5.4 mph N8.7 kmh N 10.1 mph16.3 kmh 30.27 in1025.1 mb 0.00 in0.0 mm 0.00 in0.0 mm 0.00 in0.0 mm
07:57 AM 59.0°F15.0°C 52.2°F11.2°C 78% 6.3 mph NNW10.1 kmh NNW 7.6 mph12.2 kmh 30.27 in1025.1 mb 0.00 in0.0 mm 0.00 in0.0 mm 0.00 in0.0 mm
08:12 AM 59.9°F15.5°C 53.1°F11.7°C 78% 4.7 mph NNW7.6 kmh NNW 10.1 mph16.3 kmh 30.27 in1025.1 mb 0.00 in0.0 mm 0.00 in0.0 mm 0.00 in0.0 mm
08:27 AM 61.2°F16.2°C 54.0°F12.2°C 77% 0.7 mph NNE1.1 kmh NNE 7.6 mph12.2 kmh 30.27 in1025.1 mb 0.00 in0.0 mm 0.00 in0.0 mm 0.00 in0.0 mm
08:42 AM 62.4°F16.9°C 54.3°F12.4°C 75% 2.5 mph SE4.0 kmh SE 7.6 mph12.2 kmh 30.28 in1025.4 mb 0.00 in0.0 mm 0.00 in0.0 mm 0.00 in0.0 mm
08:57 AM 64.8°F18.2°C 54.7°F12.6°C 70% 1.8 mph ESE2.9 kmh ESE 7.6 mph12.2 kmh 30.28 in1025.4 mb 0.00 in0.0 mm 0.00 in0.0 mm 0.00 in0.0 mm
09:12 AM 67.5°F19.7°C 57.0°F13.9°C 69% 0.7 mph SSE1.1 kmh SSE 7.6 mph12.2 kmh 30.28 in1025.4 mb 0.00 in0.0 mm 0.00 in0.0 mm 0.00 in0.0 mm
09:27 AM 68.2°F20.1°C 56.8°F13.8°C 67% 1.6 mph SW2.6 kmh SW 7.6 mph12.2 kmh 30.28 in1025.4 mb 0.00 in0.0 mm 0.00 in0.0 mm 0.00 in0.0 mm
09:42 AM 68.0°F20.0°C 56.7°F13.7°C 67% 1.3 mph ESE2.1 kmh ESE 10.1 mph16.3 kmh 30.29 in1025.7 mb 0.00 in0.0 mm 0.00 in0.0 mm 0.00 in0.0 mm
09:57 AM 68.2°F20.1°C 58.1°F14.5°C 70% 3.4 mph S5.5 kmh S 12.5 mph20.1 kmh 30.29 in1025.7 mb 0.00 in0.0 mm 0.00 in0.0 mm 0.00 in0.0 mm
10:12 AM 67.8°F19.9°C 58.8°F14.9°C 73% Calm Calm 10.1 mph16.3 kmh 30.29 in1025.7 mb 0.00 in0.0 mm 0.00 in0.0 mm 0.00 in0.0 mm
10:27 AM 66.9°F19.4°C 56.5°F13.6°C 69% 0.9 mph SSE1.4 kmh SSE 7.6 mph12.2 kmh 30.29 in1025.7 mb 0.00 in0.0 mm 0.00 in0.0 mm 0.00 in0.0 mm
10:42 AM 67.6°F19.8°C 58.3°F14.6°C 72% 5.4 mph SE8.7 kmh SE 12.5 mph20.1 kmh 30.29 in1025.7 mb 0.00 in0.0 mm 0.00 in0.0 mm 0.00 in0.0 mm
10:57 AM 67.6°F19.8°C 60.3°F15.7°C 77% 2.9 mph SSE4.7 kmh SSE 10.1 mph16.3 kmh 30.29 in1025.7 mb 0.00 in0.0 mm 0.00 in0.0 mm 0.00 in0.0 mm
11:12 AM 66.6°F19.2°C 59.2°F15.1°C 77% 2.9 mph SSE4.7 kmh SSE 10.1 mph16.3 kmh 30.29 in1025.7 mb 0.00 in0.0 mm 0.00 in0.0 mm 0.00 in0.0 mm
11:28 AM 65.8°F18.8°C 59.2°F15.1°C 79% 4.0 mph SE6.4 kmh SE 10.1 mph16.3 kmh 30.29 in1025.7 mb 0.00 in0.0 mm 0.00 in0.0 mm 0.00 in0.0 mm
11:43 AM 65.8°F18.8°C 58.8°F14.9°C 78% 4.0 mph SE6.4 kmh SE 10.1 mph16.3 kmh 30.29 in1025.7 mb 0.00 in0.0 mm 0.00 in0.0 mm 0.00 in0.0 mm
11:58 AM 66.0°F18.9°C 58.6°F14.8°C 77% 5.4 mph S8.7 kmh S 10.1 mph16.3 kmh 30.28 in1025.4 mb 0.00 in0.0 mm 0.00 in0.0 mm 0.00 in0.0 mm
12:13 PM 66.0°F18.9°C 58.6°F14.8°C 77% 1.8 mph SSW2.9 kmh SSW 10.1 mph16.3 kmh 30.28 in1025.4 mb 0.00 in0.0 mm 0.00 in0.0 mm 0.00 in0.0 mm
12:28 PM 66.6°F19.2°C 58.5°F14.7°C 75% 5.4 mph SSE8.7 kmh SSE 10.1 mph16.3 kmh 30.28 in1025.4 mb 0.00 in0.0 mm 0.00 in0.0 mm 0.00 in0.0 mm
12:43 PM 68.0°F20.0°C 60.4°F15.8°C 77% 2.2 mph S3.5 kmh S 12.5 mph20.1 kmh 30.28 in1025.4 mb 0.00 in0.0 mm 0.00 in0.0 mm 0.00 in0.0 mm
12:58 PM 68.2°F20.1°C 60.6°F15.9°C 77% 4.5 mph S7.2 kmh S 12.5 mph20.1 kmh 30.28 in1025.4 mb 0.00 in0.0 mm 0.00 in0.0 mm 0.00 in0.0 mm
01:13 PM 67.3°F19.6°C 59.5°F15.3°C 76% 4.5 mph S7.2 kmh S 12.5 mph20.1 kmh 30.28 in1025.4 mb 0.00 in0.0 mm 0.00 in0.0 mm 0.00 in0.0 mm
01:28 PM 67.6°F19.8°C 59.4°F15.2°C 75% 5.4 mph SE8.7 kmh SE 12.5 mph20.1 kmh 30.27 in1025.1 mb 0.00 in0.0 mm 0.00 in0.0 mm 0.00 in0.0 mm
01:43 PM 67.8°F19.9°C 59.5°F15.3°C 75% 5.4 mph S8.7 kmh S 12.5 mph20.1 kmh 30.27 in1025.1 mb 0.00 in0.0 mm 0.00 in0.0 mm 0.00 in0.0 mm
01:58 PM 67.1°F19.5°C 59.7°F15.4°C 77% 3.8 mph SE6.1 kmh SE 10.1 mph16.3 kmh 30.27 in1025.1 mb 0.00 in0.0 mm 0.00 in0.0 mm 0.00 in0.0 mm
02:13 PM 66.6°F19.2°C 58.5°F14.7°C 75% 4.5 mph E7.2 kmh E 10.1 mph16.3 kmh 30.27 in1025.1 mb 0.00 in0.0 mm 0.00 in0.0 mm 0.00 in0.0 mm
02:28 PM 66.2°F19.0°C 58.1°F14.5°C 75% 7.2 mph SE11.6 kmh SE 10.1 mph16.3 kmh 30.27 in1025.1 mb 0.00 in0.0 mm 0.00 in0.0 mm 0.00 in0.0 mm
02:43 PM 66.6°F19.2°C 58.1°F14.5°C 74% 6.9 mph SE11.1 kmh SE 10.1 mph16.3 kmh 30.27 in1025.1 mb 0.00 in0.0 mm 0.00 in0.0 mm 0.00 in0.0 mm
02:58 PM 67.3°F19.6°C 57.9°F14.4°C 72% 6.0 mph SE9.7 kmh SE 12.5 mph20.1 kmh 30.26 in1024.7 mb 0.00 in0.0 mm 0.00 in0.0 mm 0.00 in0.0 mm
03:13 PM 68.2°F20.1°C 58.8°F14.9°C 72% 3.4 mph SSW5.5 kmh SSW 12.5 mph20.1 kmh 30.26 in1024.7 mb 0.00 in0.0 mm 0.00 in0.0 mm 0.00 in0.0 mm
03:28 PM 68.4°F20.2°C 59.7°F15.4°C 74% 3.1 mph S5.0 kmh S 10.1 mph16.3 kmh 30.26 in1024.7 mb 0.00 in0.0 mm 0.00 in0.0 mm 0.00 in0.0 mm
03:43 PM 67.6°F19.8°C 59.0°F15.0°C 74% 7.8 mph S12.6 kmh S 10.1 mph16.3 kmh 30.26 in1024.7 mb 0.00 in0.0 mm 0.00 in0.0 mm 0.00 in0.0 mm
03:58 PM 67.1°F19.5°C 58.8°F14.9°C 75% 1.6 mph SSE2.6 kmh SSE 10.1 mph16.3 kmh 30.26 in1024.7 mb 0.00 in0.0 mm 0.00 in0.0 mm 0.00 in0.0 mm
04:13 PM 66.7°F19.3°C 59.7°F15.4°C 78% 0.2 mph E0.3 kmh E 10.1 mph16.3 kmh 30.26 in1024.7 mb 0.00 in0.0 mm 0.00 in0.0 mm 0.00 in0.0 mm
04:28 PM 66.6°F19.2°C 59.2°F15.1°C 77% 6.0 mph SE9.7 kmh SE 10.1 mph16.3 kmh 30.26 in1024.7 mb 0.00 in0.0 mm 0.00 in0.0 mm 0.00 in0.0 mm
04:43 PM 66.6°F19.2°C 59.9°F15.5°C 79% 0.7 mph SW1.1 kmh SW 10.1 mph16.3 kmh 30.25 in1024.4 mb 0.00 in0.0 mm 0.00 in0.0 mm 0.00 in0.0 mm
04:58 PM 66.4°F19.1°C 60.1°F15.6°C 80% 4.7 mph SSE7.6 kmh SSE 10.1 mph16.3 kmh 30.25 in1024.4 mb 0.00 in0.0 mm 0.00 in0.0 mm 0.00 in0.0 mm
05:13 PM 65.5°F18.6°C 59.5°F15.3°C 81% 3.8 mph E6.1 kmh E 10.1 mph16.3 kmh 30.25 in1024.4 mb 0.00 in0.0 mm 0.00 in0.0 mm 0.00 in0.0 mm
05:28 PM 65.5°F18.6°C 59.5°F15.3°C 81% 2.2 mph SSE3.5 kmh SSE 10.1 mph16.3 kmh 30.24 in1024.0 mb 0.00 in0.0 mm 0.00 in0.0 mm 0.00 in0.0 mm
05:43 PM 65.3°F18.5°C 59.4°F15.2°C 81% 2.9 mph SSE4.7 kmh SSE 7.6 mph12.2 kmh 30.24 in1024.0 mb 0.00 in0.0 mm 0.00 in0.0 mm 0.00 in0.0 mm
05:58 PM 65.1°F18.4°C 59.2°F15.1°C 81% 1.6 mph S2.6 kmh S 10.1 mph16.3 kmh 30.24 in1024.0 mb 0.00 in0.0 mm 0.00 in0.0 mm 0.00 in0.0 mm
06:13 PM 65.1°F18.4°C 59.9°F15.5°C 83% 1.8 mph SSE2.9 kmh SSE 7.6 mph12.2 kmh 30.24 in1024.0 mb 0.00 in0.0 mm 0.00 in0.0 mm 0.00 in0.0 mm
06:28 PM 65.1°F18.4°C 60.1°F15.6°C 84% 2.5 mph ESE4.0 kmh ESE 10.1 mph16.3 kmh 30.24 in1024.0 mb 0.00 in0.0 mm 0.00 in0.0 mm 0.00 in0.0 mm
06:43 PM 64.9°F18.3°C 59.9°F15.5°C 84% 1.8 mph SSE2.9 kmh SSE 10.1 mph16.3 kmh 30.23 in1023.7 mb 0.00 in0.0 mm 0.00 in0.0 mm 0.00 in0.0 mm
06:58 PM 64.6°F18.1°C 59.4°F15.2°C 83% 6.3 mph SE10.1 kmh SE 7.6 mph12.2 kmh 30.24 in1024.0 mb 0.00 in0.0 mm 0.00 in0.0 mm 0.00 in0.0 mm
07:13 PM 64.2°F17.9°C 59.5°F15.3°C 85% 4.5 mph SSE7.2 kmh SSE 10.1 mph16.3 kmh 30.24 in1024.0 mb 0.00 in0.0 mm 0.00 in0.0 mm 0.00 in0.0 mm
07:28 PM 64.0°F17.8°C 59.7°F15.4°C 86% 1.6 mph ESE2.6 kmh ESE 10.1 mph16.3 kmh 30.24 in1024.0 mb 0.00 in0.0 mm 0.00 in0.0 mm 0.00 in0.0 mm
07:43 PM 63.9°F17.7°C 59.2°F15.1°C 85% 0.9 mph E1.4 kmh E 7.6 mph12.2 kmh 30.24 in1024.0 mb 0.00 in0.0 mm 0.00 in0.0 mm 0.00 in0.0 mm
07:58 PM 63.7°F17.6°C 59.4°F15.2°C 86% Calm Calm 7.6 mph12.2 kmh 30.24 in1024.0 mb 0.00 in0.0 mm 0.00 in0.0 mm 0.00 in0.0 mm
08:13 PM 63.7°F17.6°C 59.7°F15.4°C 87% 0.9 mph SE1.4 kmh SE 4.9 mph7.9 kmh 30.24 in1024.0 mb 0.00 in0.0 mm 0.00 in0.0 mm 0.00 in0.0 mm
08:28 PM 63.5°F17.5°C 59.5°F15.3°C 87% Calm Calm 4.9 mph7.9 kmh 30.25 in1024.4 mb 0.00 in0.0 mm 0.00 in0.0 mm 0.00 in0.0 mm
08:43 PM 63.3°F17.4°C 59.7°F15.4°C 88% 2.9 mph SE4.7 kmh SE 4.9 mph7.9 kmh 30.25 in1024.4 mb 0.00 in0.0 mm 0.00 in0.0 mm 0.00 in0.0 mm
08:58 PM 63.3°F17.4°C 60.1°F15.6°C 89% Calm Calm 4.9 mph7.9 kmh 30.25 in1024.4 mb 0.00 in0.0 mm 0.00 in0.0 mm 0.00 in0.0 mm
09:13 PM 63.1°F17.3°C 60.1°F15.6°C 90% Calm Calm 7.6 mph12.2 kmh 30.26 in1024.7 mb 0.00 in0.0 mm 0.00 in0.0 mm 0.00 in0.0 mm
09:28 PM 63.1°F17.3°C 59.9°F15.5°C 89% 0.9 mph S1.4 kmh S 4.9 mph7.9 kmh 30.27 in1025.1 mb 0.00 in0.0 mm 0.00 in0.0 mm 0.00 in0.0 mm
09:43 PM 62.8°F17.1°C 59.2°F15.1°C 88% 0.2 mph SSE0.3 kmh SSE 2.5 mph4.0 kmh 30.27 in1025.1 mb 0.00 in0.0 mm 0.00 in0.0 mm 0.00 in0.0 mm
09:58 PM 62.6°F17.0°C 58.6°F14.8°C 87% Calm Calm 2.5 mph4.0 kmh 30.27 in1025.1 mb 0.00 in0.0 mm 0.00 in0.0 mm 0.00 in0.0 mm
10:13 PM 62.4°F16.9°C 58.8°F14.9°C 88% 1.8 mph NW2.9 kmh NW 2.5 mph4.0 kmh 30.28 in1025.4 mb 0.00 in0.0 mm 0.00 in0.0 mm 0.00 in0.0 mm
10:28 PM 62.1°F16.7°C 58.8°F14.9°C 89% 2.5 mph NW4.0 kmh NW 4.9 mph7.9 kmh 30.28 in1025.4 mb 0.00 in0.0 mm 0.00 in0.0 mm 0.00 in0.0 mm
10:43 PM 61.5°F16.4°C 58.6°F14.8°C 90% 3.8 mph NNW6.1 kmh NNW 4.9 mph7.9 kmh 30.28 in1025.4 mb 0.00 in0.0 mm 0.00 in0.0 mm 0.00 in0.0 mm
10:58 PM 61.3°F16.3°C 58.5°F14.7°C 90% 1.8 mph NNW2.9 kmh NNW 4.9 mph7.9 kmh 30.28 in1025.4 mb 0.00 in0.0 mm 0.00 in0.0 mm 0.00 in0.0 mm
11:13 PM 61.2°F16.2°C 57.9°F14.4°C 89% 5.6 mph NNW9.0 kmh NNW 7.6 mph12.2 kmh 30.28 in1025.4 mb 0.00 in0.0 mm 0.00 in0.0 mm 0.00 in0.0 mm
11:28 PM 61.0°F16.1°C 57.0°F13.9°C 87% 7.2 mph NNW11.6 kmh NNW 10.1 mph16.3 kmh 30.28 in1025.4 mb 0.00 in0.0 mm 0.00 in0.0 mm 0.00 in0.0 mm
11:43 PM 60.8°F16.0°C 56.3°F13.5°C 85% 5.6 mph NNW9.0 kmh NNW 10.1 mph16.3 kmh 30.27 in1025.1 mb 0.00 in0.0 mm 0.00 in0.0 mm 0.00 in0.0 mm
11:58 PM 60.4°F15.8°C 55.6°F13.1°C 84% 7.6 mph NW12.2 kmh NW 10.1 mph16.3 kmh 30.27 in1025.1 mb 0.00 in0.0 mm 0.00 in0.0 mm 0.00 in0.0 mm